Time;durP1;ratioP1;P1;durP2;ratioP2;P2;SDS_P1;SDS_P2;PMS_P1;PMS_P2;Temp;Humidity;BMP_temperature;BMP_pressure;BME280_temperature;BME280_humidity;BME280_pressure;Samples;Min_cycle;Max_cycle;Signal;HPM_P1;HPM_P2
2023/01/17 00:01:45;;;;;;;7.15;1.58;;;4.40;99.90;;;;;;5066708;28;20067;-74
2023/01/17 00:09:51;;;;;;;5.22;1.50;;;4.50;99.90;;;;;;5065155;28;20039;-75
2023/01/17 00:12:17;;;;;;;7.03;1.33;;;4.50;99.90;;;;;;5060219;28;20055;-75
2023/01/17 00:14:43;;;;;;;8.80;1.00;;;4.60;99.90;;;;;;5070701;28;20460;-75
2023/01/17 00:17:08;;;;;;;10.27;1.20;;;4.60;99.90;;;;;;5070246;28;20053;-75
2023/01/17 01:34:32;;;;;;;7.75;1.35;;;4.10;99.90;;;;;;5064171;28;20036;-73
2023/01/17 01:36:57;;;;;;;4.80;0.98;;;4.10;99.90;;;;;;5065395;28;20033;-74
2023/01/17 01:39:23;;;;;;;4.03;1.30;;;4.10;99.90;;;;;;5063862;28;20020;-74
2023/01/17 01:41:48;;;;;;;8.23;1.88;;;4.00;99.90;;;;;;5063717;28;20024;-74
2023/01/17 01:44:44;;;;;;;6.05;1.48;;;4.00;99.90;;;;;;5067903;28;20033;-75
2023/01/17 01:47:18;;;;;;;7.43;1.40;;;3.90;99.90;;;;;;5065190;28;20108;-75
2023/01/17 01:49:44;;;;;;;7.10;0.90;;;3.90;99.90;;;;;;5061819;28;20021;-74
2023/01/17 01:52:10;;;;;;;5.32;1.20;;;3.80;99.90;;;;;;5061530;28;20077;-74
2023/01/17 01:54:56;;;;;;;7.78;0.93;;;3.80;99.90;;;;;;5062133;28;20029;-74
2023/01/17 01:57:26;;;;;;;7.65;0.95;;;3.80;99.90;;;;;;5065998;28;20028;-75
2023/01/17 01:59:57;;;;;;;10.82;1.45;;;3.90;99.90;;;;;;5069384;28;20025;-75
2023/01/17 02:02:23;;;;;;;10.32;1.67;;;3.90;99.90;;;;;;5064955;28;20062;-74
2023/01/17 02:04:50;;;;;;;11.38;1.80;;;3.90;99.90;;;;;;5064681;28;20527;-73
2023/01/17 02:07:27;;;;;;;6.32;1.40;;;3.90;99.90;;;;;;5074218;28;20384;-75
2023/01/17 02:09:53;;;;;;;10.77;1.98;;;3.90;99.90;;;;;;5073915;28;20025;-75
2023/01/17 02:12:20;;;;;;;5.35;1.42;;;3.90;99.90;;;;;;5069837;28;20063;-76
2023/01/17 02:14:46;;;;;;;9.88;1.58;;;3.90;99.90;;;;;;5039649;28;20435;-73
2023/01/17 02:17:46;;;;;;;9.80;1.52;;;3.90;99.90;;;;;;5072367;28;20052;-76
2023/01/17 02:20:47;;;;;;;8.75;1.60;;;3.90;99.90;;;;;;5058028;28;20571;-77
2023/01/17 02:23:37;;;;;;;10.68;2.05;;;3.90;99.90;;;;;;5061636;28;20040;-74
2023/01/17 02:26:30;;;;;;;10.50;1.92;;;3.80;99.90;;;;;;5064346;28;20057;-74
2023/01/17 02:29:33;;;;;;;12.82;1.88;;;3.80;99.90;;;;;;5065524;28;20031;-75
2023/01/17 02:32:22;;;;;;;12.70;1.58;;;3.70;99.90;;;;;;5064223;28;20099;-75
2023/01/17 02:34:59;;;;;;;10.10;1.83;;;3.70;99.90;;;;;;5068143;28;20025;-75
2023/01/17 02:37:46;;;;;;;8.60;1.55;;;3.60;99.90;;;;;;5070757;28;20070;-75
2023/01/17 02:40:19;;;;;;;9.88;2.08;;;3.60;99.90;;;;;;5066949;28;20056;-74
2023/01/17 02:42:55;;;;;;;12.57;1.60;;;3.50;99.90;;;;;;5070343;28;20031;-75
2023/01/17 02:45:22;;;;;;;9.00;1.63;;;3.50;99.90;;;;;;5068928;28;20162;-75
2023/01/17 02:47:47;;;;;;;6.72;1.40;;;3.40;99.90;;;;;;5055229;28;20460;-75
2023/01/17 02:50:21;;;;;;;7.57;1.20;;;3.30;99.90;;;;;;5065986;28;20042;-75
2023/01/17 02:53:13;;;;;;;9.85;2.03;;;3.30;99.90;;;;;;5068367;28;20017;-75
2023/01/17 02:55:44;;;;;;;5.97;1.02;;;3.30;99.90;;;;;;5062560;28;20037;-74
2023/01/17 02:58:48;;;;;;;10.13;1.50;;;3.30;99.90;;;;;;5062878;28;20025;-75
2023/01/17 03:01:33;;;;;;;5.25;1.00;;;3.30;99.90;;;;;;5064289;28;20107;-75
2023/01/17 03:04:11;;;;;;;9.18;1.13;;;3.20;99.90;;;;;;5067336;28;20123;-75
2023/01/17 03:06:50;;;;;;;15.07;1.95;;;3.20;99.90;;;;;;5067599;28;20029;-75
2023/01/17 03:09:17;;;;;;;7.20;1.02;;;3.20;99.90;;;;;;5067450;28;20024;-74
2023/01/17 03:11:43;;;;;;;8.93;1.20;;;3.30;99.90;;;;;;5065455;28;20427;-75
2023/01/17 03:14:09;;;;;;;5.80;2.15;;;3.30;99.90;;;;;;5065997;28;20452;-75
2023/01/17 03:16:35;;;;;;;6.50;1.20;;;3.40;99.90;;;;;;5068321;28;20084;-75
2023/01/17 03:19:00;;;;;;;7.30;1.85;;;3.50;99.90;;;;;;5071105;28;20104;-76
2023/01/17 03:21:26;;;;;;;7.63;0.93;;;3.50;99.90;;;;;;5072904;28;20086;-75
2023/01/17 03:23:52;;;;;;;7.43;1.10;;;3.60;99.90;;;;;;5058872;28;20035;-76
2023/01/17 03:26:17;;;;;;;6.82;0.95;;;3.60;99.90;;;;;;5065913;28;20445;-76
2023/01/17 03:28:43;;;;;;;7.40;0.90;;;3.80;99.90;;;;;;5065759;28;20474;-75
2023/01/17 03:31:12;;;;;;;9.40;1.23;;;3.80;99.90;;;;;;5058757;28;20029;-75
2023/01/17 03:33:37;;;;;;;5.57;1.33;;;3.90;99.90;;;;;;5075324;28;20036;-76
2023/01/17 03:36:03;;;;;;;5.60;0.77;;;4.00;99.90;;;;;;5067926;28;20036;-76
2023/01/17 03:38:29;;;;;;;9.40;1.13;;;4.10;99.90;;;;;;5063396;28;20029;-76
2023/01/17 03:40:54;;;;;;;2.50;0.75;;;4.10;99.90;;;;;;5060607;28;20217;-75
2023/01/17 03:43:20;;;;;;;3.35;0.60;;;4.10;99.90;;;;;;5070314;28;20028;-76
2023/01/17 03:45:50;;;;;;;2.28;1.17;;;4.10;99.90;;;;;;5057471;28;20453;-76
2023/01/17 03:48:17;;;;;;;2.13;0.57;;;4.10;99.90;;;;;;5063664;28;20049;-76
2023/01/17 03:50:43;;;;;;;6.28;1.00;;;4.00;99.90;;;;;;5063009;28;20086;-75
2023/01/17 03:53:08;;;;;;;3.53;0.65;;;4.00;99.90;;;;;;5063237;28;20387;-75
2023/01/17 03:55:34;;;;;;;2.60;0.55;;;4.00;99.90;;;;;;5061189;28;20064;-76
2023/01/17 03:57:59;;;;;;;3.50;0.50;;;4.00;99.90;;;;;;5060420;28;20032;-75
2023/01/17 04:00:25;;;;;;;1.83;0.55;;;4.00;99.90;;;;;;5062654;28;20403;-76
2023/01/17 04:02:50;;;;;;;4.78;0.60;;;4.00;99.90;;;;;;5061167;28;20371;-75
2023/01/17 04:05:16;;;;;;;4.05;0.70;;;3.90;99.90;;;;;;5059357;28;20041;-76
2023/01/17 04:07:41;;;;;;;4.43;0.82;;;3.90;99.90;;;;;;5063156;28;20045;-74
2023/01/17 04:10:07;;;;;;;2.22;0.57;;;3.90;99.90;;;;;;5064377;28;20029;-76
2023/01/17 04:12:33;;;;;;;3.55;0.65;;;3.80;99.90;;;;;;5063603;28;20036;-77
2023/01/17 04:14:59;;;;;;;4.45;0.60;;;3.80;99.90;;;;;;5063225;28;20073;-76
2023/01/17 04:17:24;;;;;;;4.20;0.57;;;3.80;99.90;;;;;;5051257;28;20438;-76
2023/01/17 04:19:50;;;;;;;5.88;0.82;;;3.80;99.90;;;;;;5027770;28;20025;-75
2023/01/17 04:22:15;;;;;;;4.05;1.00;;;3.70;99.90;;;;;;5045935;28;20082;-77
2023/01/17 04:24:41;;;;;;;4.90;1.25;;;3.70;99.90;;;;;;5042130;28;20090;-76
2023/01/17 04:27:07;;;;;;;4.82;0.98;;;3.70;99.90;;;;;;5043181;28;20469;-76
2023/01/17 04:29:33;;;;;;;4.85;0.65;;;3.60;99.90;;;;;;5026302;28;20179;-77
2023/01/17 04:31:58;;;;;;;2.17;0.50;;;3.70;99.90;;;;;;5043846;28;20104;-76
2023/01/17 04:34:24;;;;;;;3.90;0.68;;;3.60;99.90;;;;;;5044481;28;20119;-76
2023/01/17 04:36:50;;;;;;;7.18;0.85;;;3.60;99.90;;;;;;5042908;28;20034;-75
2023/01/17 04:39:15;;;;;;;2.05;0.80;;;3.60;99.90;;;;;;5047106;28;20029;-76
2023/01/17 04:41:42;;;;;;;3.58;0.93;;;3.60;99.90;;;;;;5043821;28;20036;-77
2023/01/17 04:44:08;;;;;;;2.80;0.65;;;3.60;99.90;;;;;;5045005;28;20064;-77
2023/01/17 04:46:33;;;;;;;3.55;0.88;;;3.60;99.90;;;;;;5042973;28;20064;-75
2023/01/17 04:48:59;;;;;;;4.80;0.70;;;3.70;99.90;;;;;;5042184;28;20032;-76
2023/01/17 04:51:25;;;;;;;5.57;0.60;;;3.70;99.90;;;;;;5041431;28;20228;-76
2023/01/17 04:53:50;;;;;;;4.43;0.50;;;3.70;99.90;;;;;;5023409;28;20380;-77
2023/01/17 04:56:16;;;;;;;7.05;0.82;;;3.70;99.90;;;;;;5040800;28;20033;-76
2023/01/17 04:58:41;;;;;;;7.68;0.73;;;3.70;99.90;;;;;;5040198;28;20033;-76
2023/01/17 05:01:08;;;;;;;7.40;0.75;;;3.70;99.90;;;;;;5041881;28;20025;-76
2023/01/17 05:03:34;;;;;;;4.18;0.77;;;3.70;99.90;;;;;;5044160;28;20029;-74
2023/01/17 05:06:00;;;;;;;5.45;1.02;;;3.70;99.90;;;;;;5040224;28;20079;-74
2023/01/17 05:08:25;;;;;;;6.55;1.35;;;3.80;99.90;;;;;;5039866;28;20108;-76
2023/01/17 05:10:51;;;;;;;2.72;0.60;;;3.80;99.90;;;;;;5041703;28;20183;-74
2023/01/17 05:13:17;;;;;;;3.30;0.77;;;3.90;99.90;;;;;;5038988;28;20033;-75
2023/01/17 05:15:44;;;;;;;8.05;1.27;;;4.00;99.90;;;;;;5038621;28;20043;-75
2023/01/17 05:18:15;;;;;;;5.22;1.23;;;4.10;99.90;;;;;;5055097;28;20045;-76
2023/01/17 05:20:40;;;;;;;9.93;0.93;;;4.10;99.90;;;;;;5057384;28;20033;-75
2023/01/17 05:23:06;;;;;;;2.85;0.90;;;4.20;99.90;;;;;;5060526;28;20031;-76
2023/01/17 05:25:32;;;;;;;5.60;0.77;;;4.20;99.90;;;;;;5057895;28;20048;-76
2023/01/17 05:28:01;;;;;;;4.22;0.90;;;4.20;99.90;;;;;;5056873;28;20032;-75
2023/01/17 05:30:28;;;;;;;2.80;1.00;;;4.20;99.90;;;;;;5058401;28;20060;-76
2023/01/17 05:32:55;;;;;;;4.85;1.13;;;4.20;99.90;;;;;;5062314;28;20098;-76
2023/01/17 05:35:24;;;;;;;3.63;0.57;;;4.10;99.90;;;;;;5068814;28;20029;-75
2023/01/17 05:37:50;;;;;;;6.57;0.85;;;4.10;99.90;;;;;;5068756;28;20098;-76
2023/01/17 05:40:17;;;;;;;4.40;1.00;;;4.00;99.90;;;;;;5066082;28;20481;-76
2023/01/17 05:42:50;;;;;;;2.88;0.77;;;4.00;99.90;;;;;;5063776;28;20098;-75
2023/01/17 05:45:19;;;;;;;2.67;0.82;;;4.00;99.90;;;;;;5061710;28;20099;-75
2023/01/17 05:47:47;;;;;;;7.68;0.70;;;4.00;99.90;;;;;;5064498;28;20082;-77
2023/01/17 05:50:15;;;;;;;4.35;1.20;;;4.00;99.90;;;;;;5064060;28;20063;-75
2023/01/17 05:52:41;;;;;;;4.75;0.73;;;4.00;99.90;;;;;;5062417;28;20037;-74
2023/01/17 05:55:07;;;;;;;5.53;0.80;;;4.00;99.90;;;;;;5062239;28;20032;-76
2023/01/17 05:57:33;;;;;;;6.55;0.93;;;4.00;99.90;;;;;;5043600;28;20346;-74
2023/01/17 05:59:59;;;;;;;5.85;1.92;;;4.00;99.90;;;;;;5065494;28;20025;-76
2023/01/17 06:02:25;;;;;;;3.80;1.00;;;4.00;99.90;;;;;;5068587;28;20028;-77
2023/01/17 06:04:52;;;;;;;7.88;1.20;;;4.00;99.90;;;;;;5067467;28;20037;-77
2023/01/17 06:07:17;;;;;;;8.98;1.65;;;4.10;99.90;;;;;;5067456;28;20032;-75
2023/01/17 06:09:43;;;;;;;7.00;1.00;;;4.10;99.90;;;;;;5067438;28;20040;-74
2023/01/17 06:12:08;;;;;;;3.10;0.60;;;4.20;99.90;;;;;;5063920;28;20025;-77
2023/01/17 06:14:34;;;;;;;3.78;1.50;;;4.20;99.90;;;;;;5060898;28;20032;-76
2023/01/17 06:16:59;;;;;;;3.65;1.02;;;4.20;99.90;;;;;;5058124;28;20053;-74
2023/01/17 06:19:25;;;;;;;6.22;1.33;;;4.20;99.90;;;;;;5054324;28;20047;-74
2023/01/17 06:21:51;;;;;;;9.25;1.40;;;4.20;99.90;;;;;;5054167;28;20029;-76
2023/01/17 06:24:16;;;;;;;7.43;1.30;;;4.20;99.90;;;;;;5053914;28;20033;-74
2023/01/17 06:26:43;;;;;;;4.35;1.20;;;4.10;99.90;;;;;;5053828;28;20401;-76
2023/01/17 06:29:10;;;;;;;9.20;1.58;;;4.10;99.90;;;;;;5054179;28;20086;-76
2023/01/17 06:31:36;;;;;;;6.53;1.85;;;4.10;99.90;;;;;;5054373;28;20037;-74
2023/01/17 06:34:02;;;;;;;7.10;1.13;;;4.00;99.90;;;;;;5052317;28;20469;-74
2023/01/17 06:36:29;;;;;;;2.60;1.02;;;3.90;99.90;;;;;;5053906;28;20071;-75
2023/01/17 06:38:54;;;;;;;5.85;1.10;;;3.90;99.90;;;;;;5035689;28;20380;-75
2023/01/17 06:41:22;;;;;;;7.45;1.48;;;3.90;99.90;;;;;;5053421;28;20029;-76
2023/01/17 06:43:47;;;;;;;7.90;1.35;;;3.90;99.90;;;;;;5050920;28;20025;-75
2023/01/17 06:46:13;;;;;;;5.18;1.00;;;3.90;99.90;;;;;;5053951;28;20021;-73
2023/01/17 06:48:39;;;;;;;10.13;1.40;;;3.80;99.90;;;;;;5034575;28;20032;-77
2023/01/17 06:51:04;;;;;;;8.02;1.40;;;3.80;99.90;;;;;;5048496;28;20108;-74
2023/01/17 06:53:30;;;;;;;3.03;0.82;;;3.70;99.90;;;;;;5053740;28;20033;-73
2023/01/17 06:55:58;;;;;;;5.05;1.05;;;3.70;99.90;;;;;;5052896;28;20569;-75
2023/01/17 06:58:24;;;;;;;5.43;1.00;;;3.70;99.90;;;;;;5053495;28;20082;-77
2023/01/17 07:00:50;;;;;;;3.15;0.73;;;3.70;99.90;;;;;;5052833;28;20145;-74
2023/01/17 07:03:24;;;;;;;6.43;1.63;;;3.70;99.90;;;;;;5053173;28;20029;-76
2023/01/17 07:05:50;;;;;;;5.45;0.90;;;3.70;99.90;;;;;;5053208;28;20036;-75
2023/01/17 07:08:17;;;;;;;9.10;1.00;;;3.80;99.90;;;;;;5053479;28;20040;-75
2023/01/17 07:10:44;;;;;;;8.63;1.20;;;3.80;99.90;;;;;;5051571;28;20137;-74
2023/01/17 07:13:10;;;;;;;7.22;1.42;;;3.80;99.90;;;;;;5053018;28;20527;-75
2023/01/17 07:15:36;;;;;;;7.90;1.10;;;3.80;99.90;;;;;;5052592;28;20033;-73
2023/01/17 07:18:02;;;;;;;6.05;0.95;;;3.80;99.90;;;;;;5058668;28;20048;-73
2023/01/17 07:20:28;;;;;;;7.40;1.30;;;3.80;99.90;;;;;;5065873;28;20037;-73
2023/01/17 07:22:54;;;;;;;6.88;1.33;;;3.70;99.90;;;;;;5067048;28;20025;-75
2023/01/17 07:25:19;;;;;;;6.50;1.08;;;3.70;99.90;;;;;;5065134;28;20439;-73
2023/01/17 07:27:45;;;;;;;4.97;1.15;;;3.80;99.90;;;;;;5064752;28;20060;-74
2023/01/17 07:30:12;;;;;;;10.52;1.85;;;3.70;99.90;;;;;;5063423;28;20025;-73
2023/01/17 07:32:37;;;;;;;3.97;1.60;;;3.70;99.90;;;;;;5066591;28;20036;-73
2023/01/17 07:35:04;;;;;;;9.32;1.60;;;3.70;99.90;;;;;;5059328;28;20027;-75
2023/01/17 07:37:29;;;;;;;7.30;1.75;;;3.70;99.90;;;;;;5063088;28;20031;-76
2023/01/17 07:39:55;;;;;;;3.03;0.73;;;3.70;99.90;;;;;;5059741;28;20104;-75
2023/01/17 07:42:21;;;;;;;3.80;1.08;;;3.70;99.90;;;;;;5061290;28;20032;-73
2023/01/17 07:44:47;;;;;;;2.92;1.02;;;3.70;99.90;;;;;;5058202;28;20047;-76
2023/01/17 07:47:12;;;;;;;4.65;1.27;;;3.70;99.90;;;;;;5062558;28;20024;-73
2023/01/17 07:49:38;;;;;;;5.13;1.30;;;3.70;99.90;;;;;;5063330;28;20066;-73
2023/01/17 07:52:06;;;;;;;4.95;1.60;;;3.70;99.90;;;;;;5061622;28;20116;-74
2023/01/17 07:54:31;;;;;;;3.90;0.93;;;3.60;99.90;;;;;;5063086;28;20120;-73
2023/01/17 07:56:57;;;;;;;5.05;1.60;;;3.70;99.90;;;;;;5062531;28;20421;-74
2023/01/17 07:59:22;;;;;;;7.10;2.05;;;3.70;99.90;;;;;;5062806;28;20029;-74
2023/01/17 08:01:48;;;;;;;7.53;1.55;;;3.70;99.90;;;;;;5059048;28;20070;-73
2023/01/17 08:04:13;;;;;;;6.20;1.23;;;3.70;99.90;;;;;;5058336;28;20098;-73
2023/01/17 08:06:42;;;;;;;3.03;1.42;;;3.70;99.90;;;;;;5057846;28;20073;-73
2023/01/17 08:09:07;;;;;;;4.05;1.08;;;3.70;99.90;;;;;;5058845;28;20460;-73
2023/01/17 08:11:33;;;;;;;7.50;1.65;;;3.80;99.90;;;;;;5059598;28;20060;-74
2023/01/17 08:13:59;;;;;;;7.13;1.35;;;3.80;99.90;;;;;;5059260;28;20040;-73
2023/01/17 08:16:27;;;;;;;7.40;1.77;;;3.70;99.90;;;;;;5058979;28;20133;-75
2023/01/17 08:18:53;;;;;;;8.55;1.77;;;3.70;99.90;;;;;;5059711;28;20511;-74
2023/01/17 08:21:19;;;;;;;10.35;1.33;;;3.70;99.90;;;;;;5057507;28;20380;-75
2023/01/17 08:23:49;;;;;;;6.00;1.38;;;3.70;99.90;;;;;;5058069;28;20039;-73
2023/01/17 08:26:20;;;;;;;3.55;0.90;;;3.60;99.90;;;;;;5059102;28;20059;-73
2023/01/17 08:28:47;;;;;;;2.40;1.20;;;3.60;99.90;;;;;;5058023;28;20037;-74
2023/01/17 08:31:13;;;;;;;3.47;0.80;;;3.60;99.90;;;;;;5058271;28;20031;-73
2023/01/17 08:33:39;;;;;;;8.63;1.30;;;3.70;99.90;;;;;;5058713;28;20032;-73
2023/01/17 08:36:04;;;;;;;3.47;1.00;;;3.80;99.90;;;;;;5059023;28;20025;-72
2023/01/17 08:38:30;;;;;;;4.57;1.48;;;3.80;99.90;;;;;;5064176;28;20028;-74
2023/01/17 08:40:59;;;;;;;4.22;1.20;;;3.80;99.90;;;;;;5065085;28;20497;-74
2023/01/17 08:43:25;;;;;;;7.07;1.02;;;3.80;99.90;;;;;;5061481;28;20031;-74
2023/01/17 08:45:54;;;;;;;5.68;1.33;;;3.80;99.90;;;;;;5064630;28;20037;-74
2023/01/17 08:48:21;;;;;;;4.22;1.20;;;3.80;99.90;;;;;;5064618;28;20017;-74
2023/01/17 08:50:47;;;;;;;4.20;1.40;;;3.80;99.90;;;;;;5064403;28;20028;-73
2023/01/17 08:53:12;;;;;;;3.65;1.08;;;3.80;99.90;;;;;;5058387;28;20035;-74
2023/01/17 08:55:39;;;;;;;4.05;1.10;;;3.90;99.90;;;;;;5056686;28;20036;-74
2023/01/17 08:58:05;;;;;;;5.55;1.30;;;3.90;99.90;;;;;;5059750;28;20052;-74
2023/01/17 09:00:31;;;;;;;3.50;1.13;;;3.90;99.90;;;;;;5061911;28;20025;-74
2023/01/17 09:02:57;;;;;;;4.47;1.10;;;3.90;99.90;;;;;;5059567;28;20488;-72
2023/01/17 09:05:22;;;;;;;5.47;1.40;;;4.00;99.90;;;;;;5059605;28;20125;-73
2023/01/17 09:07:48;;;;;;;2.25;0.95;;;4.00;99.90;;;;;;5061844;28;20053;-72
2023/01/17 09:10:14;;;;;;;5.47;1.75;;;4.10;99.90;;;;;;5062015;28;20020;-74
2023/01/17 09:12:39;;;;;;;7.57;1.30;;;4.20;99.90;;;;;;5061751;28;20040;-74
2023/01/17 09:15:05;;;;;;;5.63;1.40;;;4.30;99.90;;;;;;5062511;28;20060;-73
2023/01/17 09:17:31;;;;;;;5.60;1.40;;;4.40;99.90;;;;;;5065837;28;20051;-73
2023/01/17 09:19:58;;;;;;;2.92;1.30;;;4.40;99.90;;;;;;5066155;28;20422;-72
2023/01/17 09:22:26;;;;;;;3.95;1.20;;;4.40;99.90;;;;;;5069068;28;20481;-74
2023/01/17 09:24:52;;;;;;;6.15;1.67;;;4.50;99.90;;;;;;5064679;28;20029;-73
2023/01/17 09:27:19;;;;;;;2.97;1.30;;;4.50;99.90;;;;;;5060920;28;20074;-73
2023/01/17 09:29:45;;;;;;;4.70;2.22;;;4.50;99.90;;;;;;5061923;28;20060;-72
2023/01/17 09:32:10;;;;;;;6.07;1.42;;;4.60;99.90;;;;;;5061965;28;20060;-74
2023/01/17 09:34:36;;;;;;;4.97;1.15;;;4.60;99.90;;;;;;5061917;28;20036;-74
2023/01/17 09:37:01;;;;;;;3.28;1.33;;;4.60;99.90;;;;;;5061203;28;20074;-73
2023/01/17 09:39:27;;;;;;;10.57;2.63;;;4.70;99.90;;;;;;5061080;28;20054;-74
2023/01/17 09:42:20;;;;;;;8.18;1.60;;;4.70;99.90;;;;;;5062554;28;20028;-74
2023/01/17 09:44:50;;;;;;;11.50;1.92;;;4.80;99.90;;;;;;5061506;28;20515;-73
2023/01/17 09:47:42;;;;;;;5.97;1.85;;;4.90;99.90;;;;;;5063098;28;20120;-71
2023/01/17 09:50:26;;;;;;;10.80;2.65;;;4.90;99.90;;;;;;5058069;28;20116;-74
2023/01/17 09:53:11;;;;;;;8.45;2.33;;;5.10;99.90;;;;;;5062593;28;20090;-72
2023/01/17 09:55:44;;;;;;;10.73;2.10;;;5.30;99.90;;;;;;5062778;28;20038;-72
2023/01/17 09:58:16;;;;;;;5.22;1.30;;;5.60;99.90;;;;;;5062489;28;20028;-73
2023/01/17 10:00:57;;;;;;;4.55;1.40;;;6.00;99.90;;;;;;5063170;28;20024;-72
2023/01/17 10:03:28;;;;;;;5.80;1.40;;;6.30;99.90;;;;;;5068368;28;20031;-74
2023/01/17 10:06:02;;;;;;;8.40;2.08;;;6.90;99.90;;;;;;5068347;28;20101;-73
2023/01/17 10:08:53;;;;;;;6.28;1.42;;;7.60;99.90;;;;;;5063700;28;20021;-74
2023/01/17 10:11:19;;;;;;;1.75;1.00;;;8.20;99.90;;;;;;5061394;28;20029;-72
2023/01/17 10:14:03;;;;;;;7.70;1.38;;;9.10;99.90;;;;;;5061217;28;20370;-70
2023/01/17 10:16:33;;;;;;;2.67;0.90;;;10.10;99.90;;;;;;5061500;28;20053;-72
2023/01/17 10:19:09;;;;;;;9.93;2.10;;;10.80;99.90;;;;;;5065957;28;20078;-72
2023/01/17 10:21:53;;;;;;;5.10;1.63;;;11.30;99.70;;;;;;5060117;28;20032;-74
2023/01/17 10:24:28;;;;;;;5.35;1.95;;;11.80;98.60;;;;;;5065524;28;20122;-73
2023/01/17 10:26:57;;;;;;;5.35;1.75;;;12.20;97.10;;;;;;5067024;28;20087;-72
2023/01/17 10:29:27;;;;;;;3.60;1.30;;;12.50;97.10;;;;;;5066558;28;20044;-71
2023/01/17 10:31:57;;;;;;;5.22;1.13;;;12.80;95.70;;;;;;5063404;28;20033;-70
2023/01/17 10:34:38;;;;;;;4.22;1.10;;;13.10;96.00;;;;;;5060611;28;20690;-71
2023/01/17 10:37:21;;;;;;;5.00;1.40;;;13.80;95.50;;;;;;5065116;28;20071;-70
2023/01/17 10:39:49;;;;;;;5.30;1.40;;;14.20;94.50;;;;;;5059514;28;20068;-71
2023/01/17 10:42:21;;;;;;;6.97;1.75;;;14.60;93.00;;;;;;5062596;28;20032;-74
2023/01/17 10:45:00;;;;;;;5.72;1.30;;;14.60;92.60;;;;;;5064863;28;20091;-73
2023/01/17 10:47:29;;;;;;;5.32;1.48;;;14.70;91.50;;;;;;5069989;28;20033;-71
2023/01/17 10:50:01;;;;;;;3.20;1.20;;;14.60;91.10;;;;;;5074619;28;20060;-72
2023/01/17 10:52:37;;;;;;;6.00;1.30;;;14.60;91.10;;;;;;5063083;28;20021;-70
2023/01/17 10:55:41;;;;;;;2.45;1.10;;;14.60;90.80;;;;;;5074403;28;20056;-70
2023/01/17 10:58:13;;;;;;;5.93;1.20;;;14.10;90.30;;;;;;5086383;28;20071;-72
2023/01/17 11:01:11;;;;;;;5.45;1.35;;;13.30;90.70;;;;;;5094848;28;20111;-70
2023/01/17 11:03:37;;;;;;;5.15;1.23;;;12.40;91.40;;;;;;5089203;28;20472;-71
2023/01/17 11:06:23;;;;;;;6.38;1.30;;;11.80;91.80;;;;;;5075735;28;20033;-74
2023/01/17 11:08:56;;;;;;;2.90;1.13;;;11.30;92.90;;;;;;5074339;28;20452;-72
2023/01/17 11:11:31;;;;;;;4.15;2.08;;;10.80;93.60;;;;;;5062741;28;20017;-70
2023/01/17 11:13:59;;;;;;;7.88;2.20;;;10.50;94.80;;;;;;5054469;28;20124;-70
2023/01/17 11:16:30;;;;;;;3.28;1.30;;;11.00;95.00;;;;;;5061123;28;20059;-70
2023/01/17 11:19:09;;;;;;;5.47;1.75;;;11.60;94.20;;;;;;5074367;28;20115;-70
2023/01/17 11:21:38;;;;;;;4.80;1.17;;;12.00;93.30;;;;;;5074339;28;20039;-72
2023/01/17 11:24:16;;;;;;;2.75;1.20;;;11.70;92.90;;;;;;5074227;28;20029;-70
2023/01/17 11:26:48;;;;;;;8.68;1.75;;;11.10;93.30;;;;;;5074245;28;20052;-71
2023/01/17 11:29:13;;;;;;;;;;;10.60;93.90;;;;;;5061084;28;20106;-72
2023/01/17 11:31:39;;;;;;;5.28;1.55;;;10.10;95.20;;;;;;5054050;28;19959;-70
2023/01/17 11:34:30;;;;;;;5.10;1.23;;;10.00;95.90;;;;;;5059932;28;20365;-73
2023/01/17 11:37:16;;;;;;;12.30;2.20;;;10.00;96.10;;;;;;5055583;28;20490;-72
2023/01/17 11:39:41;;;;;;;1.88;1.13;;;10.10;95.80;;;;;;5072342;28;20024;-72
2023/01/17 11:42:30;;;;;;;3.47;1.23;;;10.30;95.90;;;;;;5055853;28;20052;-70
2023/01/17 11:45:31;;;;;;;5.68;1.50;;;10.40;95.40;;;;;;5073975;28;20098;-72
2023/01/17 11:48:11;;;;;;;4.43;1.23;;;10.40;95.60;;;;;;5074154;28;20034;-70
2023/01/17 11:50:54;;;;;;;4.18;1.30;;;10.50;95.40;;;;;;5073546;28;20032;-70
2023/01/17 11:53:32;;;;;;;5.45;1.13;;;11.00;95.10;;;;;;5073599;28;20033;-70
2023/01/17 11:56:07;;;;;;;6.78;1.67;;;11.50;94.80;;;;;;5073619;28;20472;-69
2023/01/17 11:58:44;;;;;;;4.93;1.73;;;12.00;93.80;;;;;;5073635;28;20028;-68
2023/01/17 12:01:24;;;;;;;6.53;1.63;;;11.70;93.60;;;;;;5069892;28;20483;-68
2023/01/17 12:04:14;;;;;;;7.70;1.17;;;11.20;94.30;;;;;;5073475;28;20089;-71
2023/01/17 12:06:49;;;;;;;6.45;1.50;;;11.30;94.20;;;;;;5073563;28;20020;-68
2023/01/17 12:09:21;;;;;;;3.97;1.40;;;11.20;94.20;;;;;;5073106;28;20056;-69
2023/01/17 12:14:52;;;;;;;5.95;1.85;;;11.10;94.90;;;;;;5073101;28;20036;-68
2023/01/17 12:17:40;;;;;;;6.05;1.08;;;11.30;94.40;;;;;;5062847;28;20114;-70
2023/01/17 12:20:20;;;;;;;3.97;1.08;;;10.90;93.80;;;;;;5053234;28;20064;-72
2023/01/17 12:23:13;;;;;;;5.55;2.03;;;10.40;93.80;;;;;;5053225;28;20063;-72
2023/01/17 12:25:54;;;;;;;5.93;1.10;;;9.80;94.60;;;;;;5053192;28;20041;-71
2023/01/17 12:28:55;;;;;;;4.18;1.17;;;9.40;95.50;;;;;;5053078;28;20102;-71
2023/01/17 12:31:58;;;;;;;4.15;1.23;;;9.00;96.20;;;;;;5053221;28;20040;-72
2023/01/17 12:34:30;;;;;;;5.32;1.23;;;8.60;96.90;;;;;;5053450;28;20041;-70
2023/01/17 12:37:04;;;;;;;4.32;1.20;;;8.20;97.50;;;;;;5053153;28;20054;-70
2023/01/17 12:39:37;;;;;;;4.20;1.08;;;8.00;98.20;;;;;;5052908;28;20021;-70
2023/01/17 12:42:23;;;;;;;7.28;1.33;;;7.80;98.90;;;;;;5053026;28;20046;-70
2023/01/17 12:44:51;;;;;;;3.58;1.23;;;7.90;99.20;;;;;;5052873;28;20073;-68
2023/01/17 12:47:19;;;;;;;1.90;0.88;;;8.10;99.40;;;;;;5052735;28;20100;-69
2023/01/17 12:49:57;;;;;;;3.05;1.00;;;8.40;98.80;;;;;;5043552;28;20025;-69
2023/01/17 12:52:41;;;;;;;3.85;1.50;;;8.80;98.20;;;;;;5032944;28;20029;-69
2023/01/17 12:55:16;;;;;;;2.03;1.05;;;9.40;97.10;;;;;;5033066;28;20076;-67
2023/01/17 12:57:53;;;;;;;4.00;1.20;;;9.80;96.60;;;;;;5032981;28;20061;-69
2023/01/17 13:00:21;;;;;;;4.53;1.23;;;9.90;96.20;;;;;;5032865;28;20155;-68
2023/01/17 13:03:11;;;;;;;4.00;1.05;;;9.70;96.50;;;;;;5032810;28;20048;-69
2023/01/17 13:05:40;;;;;;;4.70;1.20;;;9.80;96.80;;;;;;5032428;28;20496;-70
2023/01/17 13:08:37;;;;;;;1.17;0.57;;;10.10;96.30;;;;;;5032624;28;20052;-69
2023/01/17 13:11:22;;;;;;;6.35;1.20;;;10.30;96.10;;;;;;5032751;28;20516;-68
2023/01/17 13:13:50;;;;;;;4.53;1.08;;;10.50;95.90;;;;;;5032549;28;20515;-69
2023/01/17 13:16:38;;;;;;;5.35;1.13;;;10.80;95.30;;;;;;5034042;28;20638;-70
2023/01/17 13:19:22;;;;;;;1.98;0.82;;;11.10;94.20;;;;;;5052609;28;20029;-70
2023/01/17 13:21:49;;;;;;;2.38;0.70;;;11.30;94.30;;;;;;5052164;28;20026;-69
2023/01/17 13:25:10;;;;;;;4.55;1.17;;;11.30;94.10;;;;;;5052331;28;20536;-69
2023/01/17 13:28:00;;;;;;;5.68;1.00;;;11.30;94.40;;;;;;5029344;28;20048;-70
2023/01/17 13:30:53;;;;;;;3.42;1.17;;;11.40;94.30;;;;;;5052709;28;20029;-70
2023/01/17 13:33:27;;;;;;;4.15;1.00;;;11.30;94.10;;;;;;5052727;28;20036;-69
2023/01/17 13:36:28;;;;;;;4.22;1.02;;;11.20;94.80;;;;;;5052470;28;20473;-69
2023/01/17 13:39:09;;;;;;;1.50;0.87;;;11.00;95.00;;;;;;5052227;28;20029;-69
2023/01/17 13:41:42;;;;;;;3.45;1.17;;;10.70;94.50;;;;;;5052293;28;20437;-70
2023/01/17 13:44:26;;;;;;;6.32;1.50;;;10.60;95.30;;;;;;5052137;28;20032;-68
2023/01/17 13:46:59;;;;;;;4.75;1.17;;;10.30;95.80;;;;;;5052281;28;20043;-70
2023/01/17 13:49:28;;;;;;;2.55;0.93;;;10.00;96.10;;;;;;5052265;28;20029;-70
2023/01/17 13:52:18;;;;;;;3.20;0.82;;;9.80;96.50;;;;;;5053400;28;20388;-69
2023/01/17 13:54:45;;;;;;;4.43;0.70;;;9.50;96.60;;;;;;5056022;28;20039;-69
2023/01/17 13:57:24;;;;;;;4.20;1.20;;;9.10;96.40;;;;;;5056131;28;20437;-69
2023/01/17 13:59:50;;;;;;;3.67;1.20;;;8.80;97.50;;;;;;5055861;28;20025;-68
2023/01/17 14:02:31;;;;;;;6.30;1.48;;;8.60;98.40;;;;;;5055766;28;20104;-70
2023/01/17 14:05:22;;;;;;;4.20;1.45;;;8.40;98.80;;;;;;5055825;28;20083;-68
2023/01/17 14:07:58;;;;;;;4.40;1.15;;;8.30;99.00;;;;;;5070309;28;20036;-68
2023/01/17 14:10:32;;;;;;;2.15;1.08;;;8.00;99.90;;;;;;5074947;28;20152;-70
2023/01/17 14:12:59;;;;;;;3.72;1.20;;;7.90;99.90;;;;;;5075283;28;20368;-68
2023/01/17 14:15:27;;;;;;;3.30;1.20;;;7.70;99.90;;;;;;5064837;28;20125;-70
2023/01/17 14:18:01;;;;;;;2.22;1.00;;;7.60;99.90;;;;;;5075646;28;20056;-68
2023/01/17 14:20:44;;;;;;;4.07;1.20;;;7.60;99.90;;;;;;5075570;28;20042;-70
2023/01/17 14:23:24;;;;;;;4.80;0.98;;;7.50;99.90;;;;;;5075383;28;20028;-71
2023/01/17 14:25:50;;;;;;;0.88;0.70;;;7.50;99.90;;;;;;5075445;28;20040;-70
2023/01/17 14:28:36;;;;;;;1.88;0.80;;;7.50;99.90;;;;;;5075523;28;20395;-69
2023/01/17 14:31:08;;;;;;;1.23;0.82;;;7.40;99.90;;;;;;5074685;28;20514;-69
2023/01/17 14:33:38;;;;;;;3.15;0.63;;;7.40;99.90;;;;;;5057406;28;20027;-68
2023/01/17 14:36:20;;;;;;;1.27;0.50;;;7.30;99.90;;;;;;5075316;28;20547;-70
2023/01/17 14:38:46;;;;;;;;;;;7.30;99.90;;;;;;5075735;28;20021;-69
2023/01/17 14:41:27;;;;;;;3.70;0.95;;;7.30;99.90;;;;;;5075129;28;19909;-71
2023/01/17 14:43:53;;;;;;;2.80;0.90;;;7.20;99.90;;;;;;5075163;28;20040;-69